Time;durP1;ratioP1;P1;durP2;ratioP2;P2;SDS_P1;SDS_P2;PMS_P1;PMS_P2;Temp;Humidity;BMP_temperature;BMP_pressure;BME280_temperature;BME280_humidity;BME280_pressure;Samples;Min_cycle;Max_cycle;Signal;HPM_P1;HPM_P2
2022/09/22 00:01:29;;;;;;;11.60;5.60;;;;;;;11.72;83.69;102396.09;5067757;28;20119;-52
2022/09/22 00:03:59;;;;;;;16.52;6.10;;;;;;;11.68;83.10;102388.63;5072817;28;20048;-53
2022/09/22 00:06:30;;;;;;;12.07;6.00;;;;;;;11.65;83.45;102389.91;5072080;28;20043;-52
2022/09/22 00:08:59;;;;;;;8.88;5.70;;;;;;;11.64;83.64;102388.28;5060655;28;20414;-52
2022/09/22 00:11:29;;;;;;;11.52;5.55;;;;;;;11.59;83.78;102387.28;5073768;28;20399;-53
2022/09/22 00:14:00;;;;;;;10.85;5.43;;;;;;;11.53;83.68;102394.53;5071907;28;20058;-51
2022/09/22 00:16:36;;;;;;;10.95;5.55;;;;;;;11.48;84.36;102389.78;5070913;28;20049;-51
2022/09/22 00:19:34;;;;;;;11.35;5.55;;;;;;;11.46;84.75;102386.44;5073546;28;20036;-50
2022/09/22 00:22:03;;;;;;;11.57;5.28;;;;;;;11.52;84.34;102384.69;5072821;28;20051;-48
2022/09/22 00:24:30;;;;;;;12.02;5.40;;;;;;;11.54;84.18;102382.53;5071961;28;20043;-51
2022/09/22 00:26:59;;;;;;;10.00;5.13;;;;;;;11.55;84.39;102378.75;5060529;28;20041;-48
2022/09/22 00:29:28;;;;;;;9.13;5.20;;;;;;;11.56;84.38;102385.88;5068663;28;20048;-48
2022/09/22 00:31:56;;;;;;;11.65;5.25;;;;;;;11.57;83.90;102382.09;5063246;28;20418;-47
2022/09/22 00:34:25;;;;;;;10.50;5.32;;;;;;;11.55;83.18;102381.50;5072747;28;20040;-49
2022/09/22 00:36:54;;;;;;;12.82;5.60;;;;;;;11.54;83.94;102387.19;5068059;28;20098;-51
2022/09/22 00:39:22;;;;;;;10.23;5.15;;;;;;;11.53;83.95;102389.06;5063833;28;20422;-48
2022/09/22 00:41:51;;;;;;;9.30;5.00;;;;;;;11.53;84.22;102380.88;5073240;28;20047;-50
2022/09/22 00:44:31;;;;;;;11.32;5.53;;;;;;;11.54;83.48;102377.09;5071671;28;20085;-50
2022/09/22 00:47:04;;;;;;;11.77;5.40;;;;;;;11.55;83.76;102372.47;5071320;28;20119;-54
2022/09/22 00:49:51;;;;;;;11.00;5.32;;;;;;;11.52;83.31;102371.88;5056389;28;20098;-50
2022/09/22 00:52:29;;;;;;;10.68;5.25;;;;;;;11.49;83.99;102374.22;5052081;28;20041;-51
2022/09/22 00:54:59;;;;;;;12.30;5.63;;;;;;;11.47;83.18;102366.31;5069846;28;20045;-53
2022/09/22 00:57:30;;;;;;;8.93;5.20;;;;;;;11.46;83.47;102367.34;5068005;28;20032;-53
2022/09/22 00:59:59;;;;;;;11.48;5.00;;;;;;;11.44;83.84;102366.75;5052475;28;20037;-55
2022/09/22 01:02:27;;;;;;;16.75;5.38;;;;;;;11.39;83.29;102361.16;5055182;28;20033;-53
2022/09/22 01:04:55;;;;;;;10.65;5.20;;;;;;;11.34;83.97;102363.78;5065613;28;20037;-52
2022/09/22 01:07:25;;;;;;;8.98;4.70;;;;;;;11.34;84.31;102350.13;5060903;28;20029;-51
2022/09/22 01:09:54;;;;;;;12.02;5.30;;;;;;;11.34;83.91;102347.41;5059667;28;20113;-50
2022/09/22 01:12:23;;;;;;;11.57;5.50;;;;;;;11.33;83.59;102350.34;5071399;28;20056;-52
2022/09/22 01:15:26;;;;;;;11.75;5.13;;;;;;;11.29;83.57;102352.75;5068566;28;20045;-53
2022/09/22 01:18:06;;;;;;;11.10;5.40;;;;;;;11.27;83.58;102352.13;5058384;28;20049;-49
2022/09/22 01:20:53;;;;;;;12.63;5.35;;;;;;;11.22;84.50;102346.56;5058521;28;20047;-49
2022/09/22 01:23:49;;;;;;;11.23;5.20;;;;;;;11.20;84.83;102344.06;5069658;28;20036;-52
2022/09/22 01:26:25;;;;;;;;;;;;;;;11.23;84.74;102335.44;5073008;28;20045;-52
2022/09/22 01:29:06;;;;;;;13.93;5.47;;;;;;;11.25;84.18;102340.63;5060314;28;20000;-51
2022/09/22 01:31:51;;;;;;;9.18;4.55;;;;;;;11.20;83.95;102335.03;5056810;28;20037;-50
2022/09/22 01:34:30;;;;;;;7.97;4.90;;;;;;;11.17;83.90;102332.78;5061684;28;20041;-51
2022/09/22 01:37:28;;;;;;;11.68;4.85;;;;;;;11.14;84.47;102338.72;5065724;28;20043;-53
2022/09/22 01:40:04;;;;;;;9.18;4.70;;;;;;;11.13;84.82;102337.88;5069004;28;20041;-50
2022/09/22 01:42:38;;;;;;;8.73;4.90;;;;;;;11.13;84.37;102337.06;5059149;28;20430;-50
2022/09/22 01:45:13;;;;;;;8.95;5.00;;;;;;;11.11;84.96;102337.28;5072204;28;20041;-50
2022/09/22 01:47:50;;;;;;;11.70;5.20;;;;;;;11.12;84.98;102327.22;5071841;28;20037;-50
2022/09/22 01:50:26;;;;;;;10.63;4.93;;;;;;;11.12;84.55;102329.94;5058511;28;20047;-51
2022/09/22 01:52:54;;;;;;;;;;;;;;;11.09;84.84;102321.16;5070503;28;20052;-51
2022/09/22 01:55:35;;;;;;;11.82;5.15;;;;;;;11.04;84.65;102326.50;5070858;28;19924;-51
2022/09/22 01:58:06;;;;;;;8.88;4.65;;;;;;;10.99;84.62;102314.59;5054569;28;20037;-50
2022/09/22 02:00:38;;;;;;;11.75;4.97;;;;;;;10.94;85.54;102315.31;5068659;28;20049;-51
2022/09/22 02:03:09;;;;;;;10.35;4.80;;;;;;;10.89;85.37;102309.72;5075551;28;20041;-53
2022/09/22 02:05:54;;;;;;;9.85;4.90;;;;;;;10.86;85.62;102310.19;5059289;28;20090;-53
2022/09/22 02:08:36;;;;;;;8.43;4.50;;;;;;;10.85;85.77;102308.53;5061705;28;20041;-51
2022/09/22 02:11:13;;;;;;;12.25;4.90;;;;;;;10.88;85.79;102313.53;5073069;28;20041;-51
2022/09/22 02:13:42;;;;;;;10.23;4.70;;;;;;;10.87;86.11;102304.53;5076533;28;20055;-50
2022/09/22 02:16:11;;;;;;;8.57;4.60;;;;;;;10.89;85.63;102298.81;5062794;28;20564;-50
2022/09/22 02:18:50;;;;;;;12.02;4.80;;;;;;;10.90;86.04;102305.94;5047158;28;20495;-49
2022/09/22 02:21:19;;;;;;;8.65;4.40;;;;;;;10.92;85.92;102302.97;5074269;28;20439;-49
2022/09/22 02:23:48;;;;;;;11.05;4.93;;;;;;;10.93;85.92;102296.47;5060783;28;20045;-48
2022/09/22 02:26:22;;;;;;;8.52;4.72;;;;;;;10.93;85.59;102297.28;5075176;28;20043;-50
2022/09/22 02:28:52;;;;;;;9.50;4.68;;;;;;;10.93;85.79;102299.19;5072102;28;20041;-50
2022/09/22 02:31:22;;;;;;;9.52;4.57;;;;;;;10.93;85.12;102291.84;5075683;28;20494;-50
2022/09/22 02:33:50;;;;;;;8.80;4.63;;;;;;;10.86;84.77;102286.47;5074742;28;20067;-52
2022/09/22 02:36:23;;;;;;;8.85;4.63;;;;;;;10.82;85.39;102292.63;5069565;28;20037;-48
2022/09/22 02:39:03;;;;;;;9.77;4.65;;;;;;;10.80;85.53;102287.44;5075720;28;20043;-49
2022/09/22 02:41:35;;;;;;;10.98;4.75;;;;;;;10.80;85.49;102289.31;5075574;28;20044;-52
2022/09/22 02:44:14;;;;;;;10.70;5.00;;;;;;;10.77;85.33;102279.69;5076109;28;20044;-49
2022/09/22 02:47:09;;;;;;;9.20;5.22;;;;;;;10.75;85.36;102281.00;5073757;28;20040;-49
2022/09/22 02:49:37;;;;;;;8.85;5.00;;;;;;;10.72;85.56;102281.47;5029135;28;20185;-50
2022/09/22 02:52:12;;;;;;;8.88;4.68;;;;;;;10.71;85.56;102277.09;5073929;28;20417;-50
2022/09/22 02:54:39;;;;;;;10.63;4.75;;;;;;;10.65;85.29;102282.41;5070675;28;20036;-50
2022/09/22 02:57:09;;;;;;;10.25;5.03;;;;;;;10.63;85.78;102278.22;5064989;28;20040;-50
2022/09/22 02:59:36;;;;;;;10.90;5.45;;;;;;;10.61;85.65;102274.94;5074041;28;20052;-48
2022/09/22 03:02:04;;;;;;;13.73;5.10;;;;;;;10.60;85.61;102274.09;5074794;28;20089;-49
2022/09/22 03:04:32;;;;;;;12.77;5.00;;;;;;;10.59;85.55;102269.72;5074314;28;20041;-52
2022/09/22 03:06:59;;;;;;;10.15;5.07;;;;;;;10.57;84.99;102266.38;5065111;28;20037;-49
2022/09/22 03:09:27;;;;;;;8.18;4.90;;;;;;;10.54;85.24;102266.84;5071988;28;20062;-50
2022/09/22 03:11:55;;;;;;;10.80;4.90;;;;;;;10.55;85.38;102270.41;5074539;28;20052;-52
2022/09/22 03:14:22;;;;;;;11.70;5.35;;;;;;;10.56;85.02;102275.63;5072466;28;20048;-49
2022/09/22 03:16:50;;;;;;;10.00;5.03;;;;;;;10.54;85.22;102266.84;5070135;28;20036;-50
2022/09/22 03:19:18;;;;;;;8.25;5.13;;;;;;;10.54;85.17;102269.56;5074792;28;20036;-49
2022/09/22 03:21:45;;;;;;;13.32;5.43;;;;;;;10.55;85.14;102262.22;5074768;28;20490;-51
2022/09/22 03:24:13;;;;;;;12.93;6.20;;;;;;;10.55;84.96;102265.78;5070227;28;20059;-52
2022/09/22 03:26:40;;;;;;;13.43;5.72;;;;;;;10.51;84.66;102261.88;5064321;28;20045;-50
2022/09/22 03:29:08;;;;;;;10.25;5.25;;;;;;;10.45;84.94;102255.44;5069764;28;20037;-52
2022/09/22 03:31:36;;;;;;;10.90;5.60;;;;;;;10.44;84.95;102258.41;5064528;28;20070;-53
2022/09/22 03:34:03;;;;;;;12.30;5.43;;;;;;;10.39;84.74;102248.22;5074274;28;20456;-51
2022/09/22 03:36:31;;;;;;;8.27;4.95;;;;;;;10.37;85.47;102254.94;5073903;28;20040;-51
2022/09/22 03:38:59;;;;;;;12.63;5.65;;;;;;;10.36;85.63;102245.91;5066711;28;20089;-53
2022/09/22 03:41:27;;;;;;;12.07;5.63;;;;;;;10.38;85.51;102254.69;5074511;28;20121;-51
2022/09/22 03:43:54;;;;;;;11.85;5.55;;;;;;;10.39;85.33;102255.53;5068125;28;20045;-53
2022/09/22 03:46:22;;;;;;;13.15;5.80;;;;;;;10.37;85.49;102253.06;5065180;28;20094;-54
2022/09/22 03:48:50;;;;;;;11.77;5.13;;;;;;;10.38;85.34;102254.69;5074114;28;20033;-50
2022/09/22 03:51:18;;;;;;;10.43;5.35;;;;;;;10.37;85.55;102253.06;5072504;28;20405;-54
2022/09/22 03:53:46;;;;;;;12.52;5.38;;;;;;;10.38;85.01;102251.16;5071511;28;20033;-50
2022/09/22 03:56:15;;;;;;;10.07;5.00;;;;;;;10.38;85.26;102251.16;5071008;28;20464;-52
2022/09/22 03:58:43;;;;;;;13.57;5.57;;;;;;;10.35;85.34;102251.63;5071977;28;20453;-50
2022/09/22 04:01:11;;;;;;;10.55;4.68;;;;;;;10.35;85.55;102248.91;5073698;28;20056;-50
2022/09/22 04:03:39;;;;;;;10.10;5.30;;;;;;;10.36;85.48;102251.38;5054952;28;20048;-50
2022/09/22 04:06:07;;;;;;;12.57;5.03;;;;;;;10.36;85.55;102250.53;5065151;28;20041;-50
2022/09/22 04:08:35;;;;;;;9.82;5.55;;;;;;;10.33;85.81;102240.13;5064149;28;20097;-51
2022/09/22 04:11:04;;;;;;;11.20;5.30;;;;;;;10.35;86.26;102240.72;5073357;28;20059;-51
2022/09/22 04:13:31;;;;;;;12.63;5.70;;;;;;;10.36;85.95;102236.91;5073715;28;20052;-52
2022/09/22 04:15:59;;;;;;;12.65;5.47;;;;;;;10.33;85.83;102235.50;5064062;28;20487;-49
2022/09/22 04:18:27;;;;;;;11.77;4.97;;;;;;;10.32;86.09;102239.28;5065841;28;20044;-51
2022/09/22 04:21:00;;;;;;;10.48;5.22;;;;;;;10.29;85.90;102233.47;5066459;28;20040;-50
2022/09/22 04:23:27;;;;;;;10.50;5.30;;;;;;;10.27;86.38;102235.56;5058741;28;20033;-50
2022/09/22 04:25:55;;;;;;;11.50;5.38;;;;;;;10.26;86.48;102233.91;5073312;28;20049;-49
2022/09/22 04:28:23;;;;;;;11.30;5.78;;;;;;;10.25;86.47;102238.53;5067794;28;20147;-51
2022/09/22 04:30:50;;;;;;;11.02;5.95;;;;;;;10.26;87.05;102239.34;5087359;28;20054;-52
2022/09/22 04:33:18;;;;;;;9.07;5.40;;;;;;;10.28;86.46;102237.22;5073217;28;20037;-54
2022/09/22 04:35:48;;;;;;;11.88;5.40;;;;;;;10.23;86.95;102227.84;5070876;28;20495;-50
2022/09/22 04:38:16;;;;;;;10.60;5.50;;;;;;;10.21;86.48;102235.41;5070980;28;20044;-51
2022/09/22 04:40:44;;;;;;;10.45;5.38;;;;;;;10.20;86.95;102231.03;5055884;28;20044;-50
2022/09/22 04:43:12;;;;;;;12.70;6.47;;;;;;;10.17;86.99;102226.06;5067220;28;20052;-50
2022/09/22 04:45:44;;;;;;;13.02;6.30;;;;;;;10.15;87.01;102228.19;5056146;28;20102;-53
2022/09/22 04:48:12;;;;;;;10.98;5.70;;;;;;;10.11;87.11;102226.97;5069591;28;20048;-51
2022/09/22 04:50:39;;;;;;;11.48;5.90;;;;;;;10.08;87.36;102227.44;5066343;28;20499;-53
2022/09/22 04:53:14;;;;;;;12.98;6.53;;;;;;;10.07;87.73;102228.47;5072935;28;20051;-50
2022/09/22 04:55:42;;;;;;;13.05;6.55;;;;;;;10.08;88.11;102227.44;5069665;28;20082;-53
2022/09/22 04:58:09;;;;;;;13.20;6.60;;;;;;;10.10;87.85;102230.78;5071982;28;20040;-52
2022/09/22 05:00:37;;;;;;;11.75;6.30;;;;;;;10.09;87.83;102233.72;5058469;28;20052;-51
2022/09/22 05:03:09;;;;;;;14.68;6.50;;;;;;;10.07;88.00;102231.22;5071145;28;20379;-51
2022/09/22 05:05:37;;;;;;;14.38;6.25;;;;;;;10.05;87.70;102237.94;5071631;28;20036;-52
2022/09/22 05:08:05;;;;;;;11.45;5.80;;;;;;;9.99;87.72;102229.63;5055516;28;20036;-49
2022/09/22 05:10:35;;;;;;;16.05;6.63;;;;;;;9.95;87.91;102235.78;5063049;28;20040;-53
2022/09/22 05:13:04;;;;;;;12.60;6.68;;;;;;;9.90;88.36;102236.47;5072517;28;20056;-50
2022/09/22 05:15:33;;;;;;;13.93;6.22;;;;;;;9.83;88.76;102230.25;5066262;28;20055;-50
2022/09/22 05:18:01;;;;;;;13.95;6.35;;;;;;;9.77;89.08;102236.63;5069838;28;20093;-48
2022/09/22 05:20:28;;;;;;;14.65;6.50;;;;;;;9.71;89.43;102237.53;5072627;28;20039;-49
2022/09/22 05:22:56;;;;;;;13.65;5.60;;;;;;;9.70;89.75;102236.72;5071365;28;20093;-51
2022/09/22 05:25:24;;;;;;;10.98;5.70;;;;;;;9.76;90.44;102234.94;5059009;28;20504;-49
2022/09/22 05:27:53;;;;;;;10.95;5.70;;;;;;;9.79;89.95;102242.69;5076789;28;20037;-47
2022/09/22 05:30:23;;;;;;;13.13;6.45;;;;;;;9.77;89.91;102242.91;5074815;28;20139;-49
2022/09/22 05:32:51;;;;;;;13.05;6.43;;;;;;;9.78;90.08;102244.56;5072833;28;20053;-50
2022/09/22 05:35:21;;;;;;;14.02;7.25;;;;;;;9.78;90.04;102241.81;5062495;28;20047;-49
2022/09/22 05:37:50;;;;;;;13.18;6.60;;;;;;;9.78;89.97;102239.09;5075164;28;20036;-50
2022/09/22 05:40:18;;;;;;;17.48;7.20;;;;;;;9.80;90.37;102239.72;5075951;28;20074;-49
2022/09/22 05:42:50;;;;;;;12.73;6.30;;;;;;;9.82;90.02;102237.59;5073267;28;20047;-49
2022/09/22 05:45:18;;;;;;;14.52;6.55;;;;;;;9.86;90.27;102234.41;5074919;28;20032;-50
2022/09/22 05:47:46;;;;;;;12.57;6.43;;;;;;;9.92;90.08;102244.41;4370124;28;10000346;-50
2022/09/22 05:50:15;;;;;;;12.73;6.13;;;;;;;9.96;89.63;102240.16;5063598;28;20049;-48
2022/09/22 05:52:43;;;;;;;12.73;6.45;;;;;;;9.98;89.49;102248.91;5055232;28;20048;-52
2022/09/22 05:55:12;;;;;;;13.32;6.20;;;;;;;9.99;89.91;102250.59;5085131;28;20049;-51
2022/09/22 05:57:40;;;;;;;15.68;6.30;;;;;;;10.00;89.57;102252.25;5062576;28;20048;-49
2022/09/22 06:00:08;;;;;;;14.43;7.30;;;;;;;10.00;89.73;102252.25;5069932;28;20052;-50
2022/09/22 06:02:41;;;;;;;13.82;6.70;;;;;;;10.01;90.11;102253.94;5063941;28;20085;-48
2022/09/22 06:05:09;;;;;;;13.65;6.60;;;;;;;10.02;90.20;102252.84;5072345;28;20042;-50
2022/09/22 06:07:37;;;;;;;11.40;6.45;;;;;;;10.07;90.11;102258.44;5056229;28;20122;-49
2022/09/22 06:10:05;;;;;;;15.73;6.20;;;;;;;10.05;90.21;102252.38;5072658;28;20051;-50
2022/09/22 06:12:33;;;;;;;16.33;7.38;;;;;;;10.05;90.71;102254.28;5066369;28;20040;-51
2022/09/22 06:15:00;;;;;;;16.75;7.18;;;;;;;10.09;90.95;102250.06;5057109;28;20052;-55
2022/09/22 06:17:28;;;;;;;12.65;6.90;;;;;;;10.10;91.01;102258.00;5059108;28;20045;-55
2022/09/22 06:19:56;;;;;;;12.68;6.72;;;;;;;10.12;90.82;102255.84;5070450;28;20048;-50
2022/09/22 06:22:24;;;;;;;15.98;7.50;;;;;;;10.16;91.14;102262.53;5060112;28;20045;-50
2022/09/22 06:24:52;;;;;;;15.05;7.18;;;;;;;10.19;90.45;102262.03;5066088;28;20142;-53
2022/09/22 06:27:20;;;;;;;22.63;7.50;;;;;;;10.18;90.65;102252.22;5071571;28;20040;-54
2022/09/22 06:29:47;;;;;;;16.52;6.35;;;;;;;10.21;90.38;102249.03;5057400;28;20049;-53
2022/09/22 06:32:18;;;;;;;13.95;6.38;;;;;;;10.26;90.16;102251.06;5063974;28;20059;-53
2022/09/22 06:34:46;;;;;;;13.23;6.60;;;;;;;10.29;90.08;102250.63;5071718;28;20049;-53
2022/09/22 06:37:14;;;;;;;11.68;6.10;;;;;;;10.32;89.98;102254.78;5071984;28;20488;-54
2022/09/22 06:39:42;;;;;;;13.32;6.30;;;;;;;10.34;89.82;102247.22;5060075;28;20044;-52
2022/09/22 06:42:10;;;;;;;14.65;6.60;;;;;;;10.35;89.58;102249.72;5069952;28;20048;-54
2022/09/22 06:44:37;;;;;;;12.00;6.03;;;;;;;10.34;89.81;102247.22;5067381;28;20036;-54
2022/09/22 06:47:07;;;;;;;11.43;5.85;;;;;;;10.34;89.86;102242.63;5070692;28;20032;-51
2022/09/22 06:49:35;;;;;;;12.70;6.20;;;;;;;10.37;89.70;102241.31;5066980;28;20063;-52
2022/09/22 06:52:02;;;;;;;13.00;6.13;;;;;;;10.39;89.32;102239.19;5069919;28;20048;-50
2022/09/22 06:54:30;;;;;;;14.30;6.10;;;;;;;10.42;89.17;102246.91;5071903;28;20105;-51
2022/09/22 06:56:58;;;;;;;11.43;6.32;;;;;;;10.44;89.13;102247.50;5071899;28;20040;-51
2022/09/22 06:59:25;;;;;;;13.00;6.57;;;;;;;10.42;88.89;102245.00;5068628;28;20059;-49
2022/09/22 07:01:53;;;;;;;13.75;6.15;;;;;;;10.45;89.19;102249.97;5069312;28;20055;-53
2022/09/22 07:04:22;;;;;;;14.93;6.82;;;;;;;10.47;89.48;102244.31;5068534;28;20062;-51
2022/09/22 07:06:49;;;;;;;15.60;7.18;;;;;;;10.50;89.67;102246.56;5062071;28;20414;-56
2022/09/22 07:09:17;;;;;;;15.13;6.90;;;;;;;10.53;89.41;102237.91;5065588;28;20036;-50
2022/09/22 07:11:46;;;;;;;13.80;7.20;;;;;;;10.56;89.14;102237.47;5071799;28;20052;-51
2022/09/22 07:14:14;;;;;;;15.40;7.07;;;;;;;10.60;88.96;102237.81;5069750;28;20056;-51
2022/09/22 07:16:42;;;;;;;13.63;7.05;;;;;;;10.63;88.06;102240.94;5070234;28;20045;-50
2022/09/22 07:19:10;;;;;;;13.73;7.00;;;;;;;10.65;88.08;102238.81;5062312;28;20099;-51
2022/09/22 07:21:38;;;;;;;12.32;6.30;;;;;;;10.69;88.17;102241.06;5071788;28;20528;-51
2022/09/22 07:24:07;;;;;;;13.10;6.70;;;;;;;10.71;87.91;102238.94;5071017;28;20048;-51
2022/09/22 07:26:37;;;;;;;14.30;6.80;;;;;;;10.74;87.88;102241.19;5067466;28;20515;-52
2022/09/22 07:29:10;;;;;;;12.48;6.65;;;;;;;10.77;87.66;102240.69;5069687;28;20074;-55
2022/09/22 07:31:39;;;;;;;18.30;6.60;;;;;;;10.79;87.64;102241.31;5071349;28;20089;-54
2022/09/22 07:34:07;;;;;;;12.88;6.30;;;;;;;10.81;87.73;102239.19;5072765;28;20140;-50
2022/09/22 07:36:36;;;;;;;19.67;7.55;;;;;;;10.83;87.25;102231.59;5074486;28;20495;-50
2022/09/22 07:39:06;;;;;;;19.02;6.57;;;;;;;10.86;87.91;102244.75;5054297;28;20518;-50
2022/09/22 07:41:40;;;;;;;16.90;6.82;;;;;;;10.88;87.74;102234.44;5073381;28;20032;-52
2022/09/22 07:47:00;;;;;;;14.30;7.18;;;;;;;10.92;87.54;102238.38;5074504;28;20037;-51
2022/09/22 07:49:28;;;;;;;18.10;6.90;;;;;;;10.95;87.56;102240.63;5072911;28;20040;-50
2022/09/22 07:51:56;;;;;;;13.75;7.28;;;;;;;10.97;87.61;102243.13;5057624;28;20040;-52
2022/09/22 07:54:25;;;;;;;19.50;7.90;;;;;;;11.00;87.65;102240.75;5052272;28;20053;-49
2022/09/22 07:57:00;;;;;;;14.88;7.55;;;;;;;11.04;88.12;102236.47;5054415;28;20049;-48
2022/09/22 07:59:28;;;;;;;15.10;6.80;;;;;;;11.07;87.83;102241.47;5073279;28;20036;-51
2022/09/22 08:01:56;;;;;;;12.40;6.80;;;;;;;11.09;87.48;102243.97;5071076;28;20051;-51
2022/09/22 08:04:25;;;;;;;11.02;6.35;;;;;;;11.11;87.55;102238.25;5065257;28;20556;-52
2022/09/22 08:06:54;;;;;;;15.65;6.68;;;;;;;11.13;88.20;102238.84;5057314;28;20052;-51
2022/09/22 08:09:23;;;;;;;12.25;6.60;;;;;;;11.15;87.85;102244.91;5069690;28;20040;-53
2022/09/22 08:11:52;;;;;;;16.75;7.18;;;;;;;11.17;88.19;102234.59;5072300;28;20045;-55
2022/09/22 08:14:22;;;;;;;11.95;5.90;;;;;;;11.19;88.30;102232.47;5071474;28;20076;-53
2022/09/22 08:16:52;;;;;;;12.00;6.32;;;;;;;11.21;88.15;102231.16;5061503;28;20070;-53
2022/09/22 08:19:22;;;;;;;13.80;6.07;;;;;;;11.24;87.89;102227.13;5071927;28;20097;-50
2022/09/22 08:21:52;;;;;;;13.25;6.22;;;;;;;11.26;88.17;102225.81;5073509;28;20040;-50
2022/09/22 08:24:21;;;;;;;18.70;6.38;;;;;;;11.29;87.90;102229.94;5073508;28;20402;-51
2022/09/22 08:26:51;;;;;;;14.43;6.20;;;;;;;11.32;87.79;102232.19;5068625;28;20041;-51
2022/09/22 08:29:19;;;;;;;12.95;5.60;;;;;;;11.35;88.25;102220.78;5055556;28;20053;-54
2022/09/22 08:31:48;;;;;;;13.00;6.10;;;;;;;11.38;87.76;102231.25;5072896;28;20116;-50
2022/09/22 08:34:16;;;;;;;14.25;6.00;;;;;;;11.40;86.38;102228.28;5061500;28;20090;-51
2022/09/22 08:36:46;;;;;;;15.65;5.70;;;;;;;11.45;86.30;102215.59;5083011;28;20102;-53
2022/09/22 08:39:14;;;;;;;9.25;4.60;;;;;;;11.49;86.17;102218.66;5060948;28;20498;-51
2022/09/22 08:42:03;;;;;;;11.93;4.85;;;;;;;11.52;85.38;102221.75;5072416;28;20052;-54
2022/09/22 08:44:36;;;;;;;11.00;5.15;;;;;;;11.56;85.17;102221.25;5071460;28;20049;-52
2022/09/22 08:47:04;;;;;;;9.75;5.03;;;;;;;11.57;84.72;102210.09;5071805;28;20048;-52
2022/09/22 08:52:38;;;;;;;10.57;5.18;;;;;;;11.63;84.65;102216.50;5067098;28;20486;-53
2022/09/22 08:55:17;;;;;;;10.55;4.93;;;;;;;11.65;85.28;102214.38;5066103;28;20037;-51
2022/09/22 08:57:44;;;;;;;11.70;5.70;;;;;;;11.70;84.24;102211.72;5070286;28;20105;-50
2022/09/22 09:00:13;;;;;;;9.05;4.85;;;;;;;11.76;83.58;102212.66;5071843;28;20094;-55
2022/09/22 09:02:48;;;;;;;7.82;4.32;;;;;;;11.80;82.94;102219.31;5072976;28;20032;-53
2022/09/22 09:05:24;;;;;;;10.88;5.10;;;;;;;11.85;82.26;102224.88;5049914;28;20049;-53
2022/09/22 09:08:10;;;;;;;12.15;4.63;;;;;;;11.89;83.43;102218.72;5062708;28;20041;-52
2022/09/22 09:10:44;;;;;;;9.23;4.88;;;;;;;11.93;82.94;102211.69;5060840;28;20468;-52
2022/09/22 09:13:41;;;;;;;11.98;5.60;;;;;;;11.98;83.57;102223.78;5064351;28;20571;-56
2022/09/22 09:16:43;;;;;;;11.45;5.70;;;;;;;12.03;84.67;102221.16;5071696;28;20085;-52
2022/09/22 09:19:27;;;;;;;12.43;5.97;;;;;;;12.07;83.93;102225.88;5061633;28;20039;-52
2022/09/22 09:22:03;;;;;;;9.30;5.57;;;;;;;12.10;83.03;102228.16;5069896;28;20053;-49
2022/09/22 09:24:38;;;;;;;10.75;5.00;;;;;;;12.13;83.01;102226.81;5041999;28;20040;-54
2022/09/22 09:27:29;;;;;;;11.18;4.97;;;;;;;12.19;82.79;102219.53;5052353;28;20051;-51
2022/09/22 09:30:02;;;;;;;8.73;4.85;;;;;;;12.24;83.21;102212.28;5071790;28;20048;-50
2022/09/22 09:32:42;;;;;;;13.88;4.70;;;;;;;12.29;82.45;102217.00;5058106;28;20045;-52
2022/09/22 09:35:15;;;;;;;9.85;5.05;;;;;;;12.32;82.08;102214.63;5064584;28;20415;-51
2022/09/22 09:37:45;;;;;;;11.60;5.45;;;;;;;12.35;81.98;102207.81;5076430;28;20083;-55
2022/09/22 09:40:16;;;;;;;12.00;5.68;;;;;;;12.40;82.51;102210.66;5072441;28;20041;-54
2022/09/22 09:42:55;;;;;;;9.15;5.13;;;;;;;12.46;82.66;102208.81;5063859;28;20525;-51
2022/09/22 09:45:30;;;;;;;9.68;5.28;;;;;;;12.52;82.47;102218.78;5072112;28;20036;-52
2022/09/22 09:48:19;;;;;;;12.73;5.43;;;;;;;12.61;82.75;102217.31;5058126;28;20499;-57
2022/09/22 09:50:46;;;;;;;11.95;5.32;;;;;;;12.66;81.28;102217.38;5043012;28;20099;-54
2022/09/22 09:53:29;;;;;;;13.25;5.55;;;;;;;12.71;80.31;102216.66;5072051;28;20047;-51
2022/09/22 09:55:57;;;;;;;7.30;4.72;;;;;;;12.77;79.79;102216.50;5064738;28;20513;-52
2022/09/22 10:01:13;;;;;;;7.88;4.80;;;;;;;12.82;80.01;102212.16;5062678;28;20041;-51
2022/09/22 10:03:46;;;;;;;9.05;5.10;;;;;;;12.84;78.87;102215.47;5070203;28;20044;-52
2022/09/22 10:06:15;;;;;;;8.48;4.65;;;;;;;12.86;78.17;102210.59;5067810;28;20041;-55
2022/09/22 10:08:49;;;;;;;7.80;4.93;;;;;;;12.87;77.10;102209.50;5055668;28;20453;-53
2022/09/22 10:11:29;;;;;;;10.88;5.43;;;;;;;12.91;78.14;102205.19;5070587;28;20059;-54
2022/09/22 10:13:57;;;;;;;9.25;5.57;;;;;;;12.97;76.93;102198.75;5074530;28;20056;-51
2022/09/22 10:16:29;;;;;;;10.90;5.60;;;;;;;13.04;75.42;102193.94;5075793;28;20036;-52
2022/09/22 10:19:15;;;;;;;9.38;5.30;;;;;;;13.09;74.70;102196.75;5074643;28;20567;-52
2022/09/22 10:21:43;;;;;;;8.73;4.80;;;;;;;13.14;72.16;102194.06;5062975;28;20081;-51
2022/09/22 10:24:31;;;;;;;9.77;5.00;;;;;;;13.21;73.16;102185.69;5075250;28;20040;-53
2022/09/22 10:26:59;;;;;;;9.27;5.60;;;;;;;13.26;74.31;102184.94;5045301;28;20149;-53
2022/09/22 10:29:31;;;;;;;9.13;5.80;;;;;;;13.30;74.81;102186.09;5075728;28;20044;-53
2022/09/22 10:32:12;;;;;;;10.45;5.10;;;;;;;13.33;75.23;102186.44;5072418;28;20088;-50
2022/09/22 10:34:45;;;;;;;10.13;5.13;;;;;;;13.35;75.08;102186.19;5073917;28;20040;-52
2022/09/22 10:37:17;;;;;;;10.75;5.20;;;;;;;13.35;73.97;102176.06;5075683;28;20032;-55
2022/09/22 10:39:52;;;;;;;13.68;4.95;;;;;;;13.43;74.33;102175.59;5074097;28;20048;-52
2022/09/22 10:42:39;;;;;;;8.68;5.18;;;;;;;13.46;73.58;102182.47;5073019;28;20041;-52
2022/09/22 10:45:14;;;;;;;11.90;5.78;;;;;;;13.47;72.73;102165.00;5084173;28;20056;-52
2022/09/22 10:47:41;;;;;;;8.00;4.68;;;;;;;13.47;70.66;102158.66;5059934;28;20036;-54
2022/09/22 10:50:40;;;;;;;9.88;5.35;;;;;;;13.50;71.61;102164.47;5071320;28;20044;-52
2022/09/22 10:53:33;;;;;;;9.95;5.57;;;;;;;13.55;71.96;102166.44;5074012;28;20044;-50
2022/09/22 10:56:29;;;;;;;11.15;5.30;;;;;;;13.60;72.07;102161.84;5065434;28;20048;-54
2022/09/22 10:58:56;;;;;;;9.75;5.05;;;;;;;13.66;71.26;102161.91;5072051;28;20064;-55
2022/09/22 11:01:39;;;;;;;10.23;4.50;;;;;;;13.74;71.59;102161.47;5075250;28;20093;-53
2022/09/22 11:04:32;;;;;;;8.48;4.53;;;;;;;13.77;68.60;102158.22;5075547;28;20044;-55
2022/09/22 11:13:34;;;;;;;8.23;4.07;;;;;;;13.98;68.68;102142.84;5061531;28;20052;-52
2022/09/22 11:16:21;;;;;;;7.50;4.50;;;;;;;14.01;64.88;102151.34;5056705;28;20127;-52
2022/09/22 11:19:15;;;;;;;9.65;4.00;;;;;;;14.07;70.87;102147.59;5065237;28;20054;-52
2022/09/22 11:22:16;;;;;;;6.05;4.20;;;;;;;14.07;65.00;102147.59;5061431;28;20376;-53
2022/09/22 11:25:17;;;;;;;10.13;4.35;;;;;;;14.09;64.99;102149.22;5073665;28;20048;-53
2022/09/22 11:28:02;;;;;;;9.57;3.80;;;;;;;14.14;68.53;102147.38;5071939;28;20047;-52
2022/09/22 11:30:59;;;;;;;8.43;4.40;;;;;;;14.13;65.45;102147.63;5055117;28;20086;-53
2022/09/22 11:33:33;;;;;;;8.88;4.95;;;;;;;14.17;65.32;102140.56;5051344;28;20500;-51
2022/09/22 11:36:03;;;;;;;6.63;4.10;;;;;;;14.20;64.12;102134.53;5073081;28;20106;-53
2022/09/22 11:38:59;;;;;;;6.47;3.65;;;;;;;14.23;65.25;102128.53;5072920;28;20048;-53
2022/09/22 11:41:32;;;;;;;6.13;3.60;;;;;;;14.26;63.22;102125.25;5071138;28;20040;-52
2022/09/22 11:44:13;;;;;;;7.35;3.75;;;;;;;14.24;65.48;102120.06;5073000;28;20036;-54
2022/09/22 11:47:02;;;;;;;9.98;4.00;;;;;;;14.20;63.33;102120.84;5072935;28;20128;-55
2022/09/22 11:50:09;;;;;;;8.00;3.65;;;;;;;14.15;62.55;102120.78;5078847;28;20041;-55
2022/09/22 11:52:55;;;;;;;5.72;3.28;;;;;;;14.12;61.75;102115.81;5058949;28;20049;-55
2022/09/22 11:55:36;;;;;;;8.13;3.72;;;;;;;14.17;62.21;102116.69;5071357;28;20041;-54
2022/09/22 11:58:32;;;;;;;9.10;4.10;;;;;;;14.22;61.65;102115.94;5068283;28;20484;-54
2022/09/22 12:01:12;;;;;;;7.25;3.67;;;;;;;14.23;62.38;102101.94;5054763;28;20053;-55